• Join FlightAware (Why Join?)
  • Login
  • US Flag 
Trick or treat! (Boo!!) 
11:53AM EDT


 

Airport Tracker/Info


-or-


 

Live Flight TrackerFlight Track Log ✈ DAL5889 ✈ 16-Jul-2014 ✈ KBOS - KLGA

Flight Track Log - Related Links

Times and Time Zones

All times are in EDT time to prevent confusion due to time zone crossing. See the DAL5889 flight status page for this flight to view local times or setup timezone preferences in your user account.

Time Position Orientation Groundspeed Altitude Reporting Facility
EDT Latitude Longitude Course Direction KTS MPH feet Rate Location/Type
04:42PM 42.3500 -71.0167 259° West 141 162 700  Level KA90
04:42PM 42.3333 -71.0167 180° South 158 182 1,700 1,740 Climbing KA90
04:43PM 42.3128 -70.9742 123° Southeast 192 221 2,800 2,520 Climbing Boston Center
04:44PM 42.3208 -70.8719 84° East 260 299 6,000 2,940 Climbing Boston Center
04:45PM 42.0727 -71.5517 234° Southwest  Level Estimated
04:45PM 42.3219 -70.7664 89° East 301 346 8,900  Level Boston Center
04:46PM 42.0798 -71.7237 259° West  Level FlightAware Approximate
04:46PM 42.2539 -70.7225 154° Southeast 295 339 11,400  Level Boston Center
04:47PM 42.0554 -71.8879 259° West  Level FlightAware Approximate
04:47PM 42.1825 -70.7778 210° Southwest 324 373 13,700  Level Boston Center
04:48PM 42.1669 -70.9083 261° West 318 366 14,100 180 Climbing Boston Center
04:49PM 42.1528 -71.0233 261° West 317 365 14,100  Level Boston Center
04:50PM 42.1375 -71.1453 260° West 310 357 14,100  Level Boston Center
04:51PM 42.1244 -71.2611 261° West 311 358 14,100  Level Boston Center
04:52PM 42.1094 -71.3786 260° West 318 366 14,100 -60 Level Boston Center
04:53PM 42.0942 -71.5044 261° West 318 366 14,000  Descending Boston Center
04:54PM 42.0792 -71.6219 260° West 320 368 14,100  Climbing Boston Center
04:55PM 42.0644 -71.7450 261° West 315 362 14,100  Level Boston Center
04:56PM 42.0497 -71.8594 260° West 311 358 14,100  Level Boston Center
04:57PM 42.0342 -71.9800 260° West 313 360 14,100  Level Boston Center
04:58PM 42.0192 -72.0967 260° West 318 366 14,100 -60 Level Boston Center
04:59PM 42.0042 -72.2111 260° West 314 361 14,000 -60 Descending Boston Center
05:00PM 41.9881 -72.3356 260° West 314 361 14,000  Level Boston Center
05:01PM 41.9728 -72.4494 260° West 314 361 14,000  Level Boston Center
05:02PM 41.9569 -72.5725 260° West 310 357 14,000  Level Boston Center
05:03PM 41.9433 -72.6717 260° West 310 357 14,000  Level Boston Center
05:04PM 41.8997 -72.7889 243° Southwest 299 344 14,000  Level Boston Center
05:05PM 41.8581 -72.8892 241° Southwest 304 350 14,000  Level Boston Center
05:06PM 41.8161 -72.9900 241° Southwest 306 352 14,000  Level Boston Center
05:07PM 41.7711 -73.0958 240° Southwest 306 352 14,000  Level Boston Center
05:08PM 41.7294 -73.1950 241° Southwest 305 351 14,000  Level Boston Center
05:09PM 41.6883 -73.2931 241° Southwest 304 350 14,000 -360 Level Boston Center
05:10PM 41.6656 -73.4011 254° West 295 339 13,300 -720 Descending Boston Center
05:11PM 41.6572 -73.5064 264° West 287 330 12,600 -780 Descending Boston Center
05:12PM 41.6489 -73.6169 264° West 282 325 11,800 -780 Descending Boston Center
05:13PM 41.6394 -73.7192 263° West 281 323 11,100 -720 Descending Boston Center
05:14PM 41.6211 -73.8158 256° West 279 321 10,400 -720 Descending Boston Center
05:16PM 41.5419 -73.8475 197° South 277 319 9,700 -720 Descending Boston Center
05:17PM 41.4664 -73.8722 194° South 277 319 9,000 -720 Descending Boston Center
05:18PM 41.3931 -73.8450 164° South 284 327 8,300 -540 Descending Boston Center
05:19PM 41.3231 -73.7803 145° Southeast 284 327 8,000 -120 Descending Boston Center
05:20PM 41.2333 -73.7000 146° Southeast 286 329 8,000 -300 Level New York TRACON
05:21PM 41.1500 -73.6667 163° South 273 314 7,400 -660 Descending New York TRACON
05:22PM 41.0833 -73.6667 180° South 300 345 6,700 -780 Descending New York TRACON
05:23PM 41.0000 -73.6500 171° South 274 315 5,800 -900 Descending New York TRACON
05:24PM 40.9167 -73.6333 171° South 277 319 4,900 -900 Descending New York TRACON
05:25PM 40.8500 -73.6500 191° South 268 308 4,000 -480 Descending New York TRACON
05:26PM 40.7833 -73.7000 210° Southwest 263 303 4,000  Level New York TRACON
05:27PM 40.7667 -73.7833 255° West 256 295 4,000  Level New York TRACON
05:28PM 40.7833 -73.8833 282° West 258 297 4,000  Level New York TRACON
05:29PM 40.7667 -73.9667 255° West 261 300 4,000  Level New York TRACON
05:30PM 40.7167 -74.0333 225° Southwest 253 291 4,000 -540 Level New York TRACON
05:31PM 40.6833 -74.0000 143° Southeast 248 285 3,000 -780 Descending New York TRACON
05:32PM 40.7167 -73.9333 57° Northeast 193 222 2,600 -780 Descending New York TRACON
05:33PM 40.7333 -73.8667 72° East 160 184 1,400 -900 Descending New York TRACON
05:34PM 40.7500 -73.8333 57° Northeast 139 160 800 -720 Descending New York TRACON